createdAt,value
2019-04-10T00:00:47.593Z,25.93
2019-04-10T00:03:28.157Z,27.37
2019-04-10T00:05:49.935Z,26.03
2019-04-10T00:08:19.881Z,31.23
2019-04-10T00:10:49.537Z,28.90
2019-04-10T00:13:19.094Z,28.90
2019-04-10T00:15:48.754Z,28.90
2019-04-10T00:18:18.421Z,24.33
2019-04-10T00:20:48.981Z,26.37
2019-04-10T00:23:19.281Z,25.87
2019-04-10T00:25:48.919Z,23.27
2019-04-10T00:28:23.888Z,27.70
2019-04-10T00:34:05.754Z,26.30
2019-04-10T00:36:35.284Z,25.37
2019-04-10T00:39:06.884Z,22.73
2019-04-10T00:41:36.589Z,27.63
2019-04-10T00:44:06.281Z,28.03
2019-04-10T00:46:35.814Z,27.17
2019-04-10T00:49:05.407Z,28.17
2019-04-10T00:51:35.210Z,29.27
2019-04-10T00:54:05.676Z,29.83
2019-04-10T00:56:35.355Z,24.90
2019-04-10T00:59:05.916Z,27.50
2019-04-10T01:01:36.143Z,29.67
2019-04-10T01:04:07.086Z,28.70
2019-04-10T01:06:37.668Z,27.90
2019-04-10T01:09:09.635Z,28.27
2019-04-10T01:11:39.345Z,26.43
2019-04-10T01:14:09.636Z,30.57
2019-04-10T01:16:39.776Z,28.27
2019-04-10T01:19:09.966Z,27.80
2019-04-10T01:21:40.059Z,30.10
2019-04-10T01:24:09.714Z,29.97
2019-04-10T01:26:39.371Z,30.77
2019-04-10T01:29:09.309Z,27.17
2019-04-10T01:31:39.397Z,27.30
2019-04-10T01:34:09.471Z,30.80
2019-04-10T01:36:39.449Z,28.77
2019-04-10T01:39:11.094Z,26.63
2019-04-10T01:41:41.745Z,31.47
2019-04-10T01:44:11.370Z,27.87
2019-04-10T01:46:42.330Z,28.77
2019-04-10T01:49:13.500Z,31.43
2019-04-10T01:51:44.134Z,28.77
2019-04-10T01:54:13.653Z,29.27
2019-04-10T01:56:43.840Z,30.53
2019-04-10T01:59:13.868Z,30.17
2019-04-10T02:01:53.655Z,30.97
2019-04-10T02:04:23.522Z,29.07
2019-04-10T02:06:53.783Z,30.63
2019-04-10T02:09:23.466Z,30.80
2019-04-10T02:11:54.359Z,28.60
2019-04-10T02:14:24.533Z,32.07
2019-04-10T02:16:54.915Z,30.20
2019-04-10T02:19:24.479Z,27.73
2019-04-10T02:21:54.168Z,29.87
2019-04-10T02:24:25.200Z,32.17
2019-04-10T02:26:56.030Z,28.77
2019-04-10T02:29:26.017Z,25.93
2019-04-10T02:31:57.180Z,29.73
2019-04-10T02:34:28.313Z,29.60
2019-04-10T02:36:58.636Z,32.10
2019-04-10T02:39:37.433Z,28.93
2019-04-10T02:42:00.539Z,28.77
2019-04-10T02:44:30.663Z,28.97
2019-04-10T02:47:02.101Z,30.30
2019-04-10T02:49:32.177Z,27.30
2019-04-10T02:52:01.827Z,30.13
2019-04-10T02:54:31.435Z,25.73
2019-04-10T02:57:01.081Z,26.60
2019-04-10T02:59:31.028Z,28.70
2019-04-10T03:02:02.304Z,26.50
2019-04-10T03:04:33.023Z,29.70
2019-04-10T03:07:04.302Z,29.23
2019-04-10T03:09:49.440Z,26.83
2019-04-10T03:12:08.533Z,28.20
2019-04-10T03:14:39.234Z,30.90
2019-04-10T03:17:10.098Z,28.17
2019-04-10T03:19:39.958Z,24.73
2019-04-10T03:22:10.459Z,28.17
2019-04-10T03:24:40.184Z,25.97
2019-04-10T03:27:10.146Z,30.70
2019-04-10T03:29:40.006Z,26.63
2019-04-10T03:32:31.057Z,26.57
2019-04-10T03:35:02.885Z,25.23
2019-04-10T03:37:34.085Z,28.57
2019-04-10T03:40:04.888Z,27.93
2019-04-10T03:42:34.593Z,26.53
2019-04-10T03:45:05.510Z,23.70
2019-04-10T03:47:35.623Z,28.87
2019-04-10T03:50:05.147Z,23.93
2019-04-10T03:52:35.655Z,28.80
2019-04-10T03:55:05.474Z,25.27
2019-04-10T03:57:34.989Z,25.83
2019-04-10T04:00:05.760Z,23.90
2019-04-10T04:02:35.917Z,23.30
2019-04-10T04:05:06.524Z,23.53
2019-04-10T04:07:36.839Z,22.13
2019-04-10T04:10:06.495Z,23.73
2019-04-10T04:12:37.012Z,24.17
2019-04-10T04:15:06.652Z,23.97
2019-04-10T04:17:36.386Z,23.77
2019-04-10T04:20:06.507Z,18.70
2019-04-10T04:22:36.981Z,21.03
2019-04-10T04:25:08.662Z,22.80
2019-04-10T04:27:38.298Z,21.77
2019-04-10T04:30:08.434Z,19.63
2019-04-10T04:32:38.474Z,19.67
2019-04-10T04:35:08.996Z,19.90
2019-04-10T04:37:39.006Z,19.00
2019-04-10T04:40:09.045Z,16.27
2019-04-10T04:42:38.763Z,19.93
2019-04-10T04:45:08.671Z,19.47
2019-04-10T04:47:39.160Z,18.00
2019-04-10T04:50:09.784Z,17.73
2019-04-10T04:52:41.196Z,17.50
2019-04-10T04:55:12.101Z,16.13
2019-04-10T04:57:42.272Z,16.93
2019-04-10T05:00:13.087Z,15.33
2019-04-10T05:02:42.777Z,15.33
2019-04-10T05:05:12.322Z,15.93
2019-04-10T05:07:42.061Z,14.47
2019-04-10T05:10:11.627Z,13.97
2019-04-10T05:12:43.468Z,16.43
2019-04-10T05:15:31.704Z,15.50
2019-04-10T05:17:58.374Z,14.60
2019-04-10T05:20:40.273Z,14.87
2019-04-10T05:22:59.884Z,14.00
2019-04-10T05:25:38.878Z,14.20
2019-04-10T05:28:08.485Z,13.23
2019-04-10T05:30:38.490Z,14.07
2019-04-10T05:33:08.871Z,12.97
2019-04-10T05:35:38.510Z,11.50
2019-04-10T05:38:08.102Z,14.13
2019-04-10T05:40:37.820Z,12.80
2019-04-10T05:43:07.384Z,12.87
2019-04-10T05:45:37.810Z,14.70
2019-04-10T05:48:08.796Z,13.83
2019-04-10T05:50:39.874Z,14.77
2019-04-10T05:53:09.838Z,13.70
2019-04-10T05:55:39.451Z,14.77
2019-04-10T05:58:09.248Z,13.40
2019-04-10T06:00:38.922Z,13.67
2019-04-10T06:03:08.492Z,14.73
2019-04-10T06:05:38.292Z,14.33
2019-04-10T06:08:08.033Z,15.37
2019-04-10T06:10:37.847Z,16.90
2019-04-10T06:13:07.475Z,15.90
2019-04-10T06:15:37.288Z,16.43
2019-04-10T06:18:07.116Z,15.73
2019-04-10T06:20:37.622Z,15.50
2019-04-10T06:23:07.611Z,15.63
2019-04-10T06:25:39.477Z,14.33
2019-04-10T06:28:09.420Z,16.23
2019-04-10T06:30:39.790Z,17.13
2019-04-10T06:33:09.708Z,17.23
2019-04-10T06:35:39.852Z,16.87
2019-04-10T06:38:23.117Z,18.10
2019-04-10T06:40:52.759Z,17.33
2019-04-10T06:43:23.648Z,17.77
2019-04-10T06:45:53.319Z,20.57
2019-04-10T06:48:23.654Z,18.83
2019-04-10T06:50:53.536Z,20.67
2019-04-10T06:53:23.200Z,19.20
2019-04-10T06:55:52.989Z,21.07
2019-04-10T06:58:23.667Z,22.57
2019-04-10T07:00:55.172Z,20.73
2019-04-10T07:03:28.915Z,23.70
2019-04-10T07:06:06.402Z,23.83
2019-04-10T07:08:29.627Z,22.77
2019-04-10T07:11:07.807Z,24.40
2019-04-10T07:13:30.664Z,24.50
2019-04-10T07:16:04.259Z,25.80
2019-04-10T07:18:36.650Z,24.93
2019-04-10T07:21:12.498Z,23.27
2019-04-10T07:23:42.852Z,24.73
2019-04-10T07:26:18.502Z,23.60
2019-04-10T07:28:46.409Z,24.60
2019-04-10T07:31:15.446Z,25.37
2019-04-10T07:33:50.079Z,25.60
2019-04-10T07:36:16.470Z,24.00
2019-04-10T07:39:01.469Z,24.43
2019-04-10T07:41:33.415Z,25.00
2019-04-10T07:44:05.945Z,30.30
2019-04-10T07:46:35.562Z,26.40
2019-04-10T07:49:06.314Z,28.07
2019-04-10T07:51:36.695Z,27.63
2019-04-10T07:54:06.309Z,26.67
2019-04-10T07:56:36.092Z,26.27
2019-04-10T07:59:06.768Z,23.73
2019-04-10T08:01:37.268Z,25.33
2019-04-10T08:04:08.372Z,25.77
2019-04-10T08:06:37.942Z,25.10
2019-04-10T08:09:08.418Z,24.00
2019-04-10T08:11:38.240Z,24.23
2019-04-10T08:14:08.576Z,24.40
2019-04-10T08:16:39.402Z,23.27
2019-04-10T08:19:10.325Z,23.70
2019-04-10T08:21:40.343Z,22.60
2019-04-10T08:24:10.072Z,23.00
2019-04-10T08:26:40.827Z,23.40
2019-04-10T08:29:10.426Z,23.43
2019-04-10T08:31:40.130Z,24.93
2019-04-10T08:34:25.991Z,24.53
2019-04-10T08:36:56.807Z,23.43
2019-04-10T08:39:33.942Z,22.80
2019-04-10T08:41:58.123Z,23.77
2019-04-10T08:44:27.914Z,22.27
2019-04-10T08:46:58.236Z,26.50
2019-04-10T08:49:28.285Z,30.40
2019-04-10T08:51:58.085Z,23.87
2019-04-10T08:54:28.135Z,24.33
2019-04-10T08:56:57.972Z,25.80
2019-04-10T08:59:27.851Z,24.60
2019-04-10T09:01:57.851Z,22.87
2019-04-10T09:04:28.678Z,27.77
2019-04-10T09:07:01.309Z,27.93
2019-04-10T09:09:29.992Z,29.63
2019-04-10T09:11:59.857Z,29.60
2019-04-10T09:14:47.623Z,27.47
2019-04-10T09:17:17.477Z,29.67
2019-04-10T09:19:47.221Z,29.40
2019-04-10T09:22:16.835Z,29.80
2019-04-10T09:24:46.773Z,29.67
2019-04-10T09:27:17.187Z,29.07
2019-04-10T09:29:46.834Z,29.47
2019-04-10T09:32:16.461Z,30.03
2019-04-10T09:34:46.780Z,26.60
2019-04-10T09:37:17.818Z,34.00
2019-04-10T09:39:47.948Z,28.13
2019-04-10T09:42:19.396Z,26.90
2019-04-10T09:44:49.319Z,29.00
2019-04-10T09:47:19.069Z,29.60
2019-04-10T09:49:49.299Z,28.70
2019-04-10T09:52:19.199Z,29.00
2019-04-10T09:54:49.004Z,27.43
2019-04-10T09:57:20.099Z,27.03
2019-04-10T09:59:49.898Z,29.83
2019-04-10T10:02:19.686Z,28.87
2019-04-10T10:04:50.428Z,28.63
2019-04-10T10:07:20.717Z,28.20
2019-04-10T10:09:51.343Z,33.77
2019-04-10T10:12:21.057Z,29.47
2019-04-10T10:14:51.799Z,27.60
2019-04-10T10:17:22.402Z,28.43
2019-04-10T10:19:53.563Z,29.63
2019-04-10T10:22:25.188Z,26.23
2019-04-10T10:24:56.252Z,25.37
2019-04-10T10:27:26.825Z,27.10
2019-04-10T10:29:57.847Z,28.47
2019-04-10T10:32:28.919Z,26.87
2019-04-10T10:34:58.994Z,28.50
2019-04-10T10:37:30.501Z,29.43
2019-04-10T10:40:01.309Z,31.40
2019-04-10T10:42:31.753Z,28.67
2019-04-10T10:45:02.777Z,28.43
2019-04-10T10:47:32.681Z,28.20
2019-04-10T10:50:02.270Z,26.07
2019-04-10T10:52:33.366Z,27.00
2019-04-10T10:55:03.272Z,27.07
2019-04-10T10:57:35.244Z,27.93
2019-04-10T11:00:06.608Z,27.33
2019-04-10T11:02:36.422Z,37.83
2019-04-10T11:05:07.149Z,27.30
2019-04-10T11:07:36.863Z,25.93
2019-04-10T11:10:06.960Z,27.87
2019-04-10T11:12:38.228Z,26.17
2019-04-10T11:15:08.367Z,28.60
2019-04-10T11:17:38.605Z,28.87
2019-04-10T11:20:10.369Z,36.97
2019-04-10T11:22:42.022Z,27.10
2019-04-10T11:25:12.268Z,26.10
2019-04-10T11:27:42.676Z,25.03
2019-04-10T11:30:13.671Z,26.57
2019-04-10T11:32:44.464Z,27.00
2019-04-10T11:35:15.585Z,27.93
2019-04-10T11:37:49.651Z,27.13
2019-04-10T11:42:48.546Z,27.23
2019-04-10T11:45:19.193Z,28.97
2019-04-10T11:47:51.246Z,27.47
2019-04-10T11:50:21.846Z,27.83
2019-04-10T11:52:53.494Z,25.27
2019-04-10T11:55:27.035Z,26.30
2019-04-10T11:57:55.397Z,27.33
2019-04-10T12:03:10.464Z,26.20
2019-04-10T12:05:41.401Z,26.87
2019-04-10T12:13:17.014Z,27.13
2019-04-10T12:15:46.295Z,25.83
2019-04-10T12:18:16.163Z,22.93
2019-04-10T12:20:46.142Z,23.67
2019-04-10T12:23:18.966Z,23.80
2019-04-10T12:25:49.367Z,25.60
2019-04-10T12:28:20.100Z,23.67
2019-04-10T12:30:49.668Z,28.13
2019-04-10T12:33:19.315Z,59.83
2019-04-10T12:35:49.975Z,26.00
2019-04-10T12:38:19.800Z,22.17
2019-04-10T12:40:49.336Z,24.67
2019-04-10T12:43:18.863Z,23.93
2019-04-10T12:45:48.780Z,24.97
2019-04-10T12:48:19.459Z,23.17
2019-04-10T12:50:49.504Z,26.67
2019-04-10T12:53:19.286Z,24.10
2019-04-10T12:55:49.412Z,23.00
2019-04-10T12:58:20.634Z,24.97
2019-04-10T13:00:52.157Z,23.87
2019-04-10T13:03:22.982Z,24.47
2019-04-10T13:05:53.578Z,22.93
2019-04-10T13:08:34.984Z,24.27
2019-04-10T13:10:54.435Z,23.13
2019-04-10T13:13:24.327Z,23.97
2019-04-10T13:15:54.286Z,23.97
2019-04-10T13:18:24.686Z,23.93
2019-04-10T13:20:54.363Z,25.30
2019-04-10T13:23:24.664Z,25.60
2019-04-10T13:25:59.531Z,23.33
2019-04-10T13:28:26.203Z,26.07
2019-04-10T13:30:57.829Z,25.73
2019-04-10T13:33:28.786Z,23.87
2019-04-10T13:35:59.472Z,24.30
2019-04-10T13:38:33.709Z,23.23
2019-04-10T13:41:02.069Z,23.73
2019-04-10T13:43:32.318Z,23.03
2019-04-10T13:46:02.603Z,22.17
2019-04-10T13:48:33.225Z,20.73
2019-04-10T13:51:03.498Z,19.73
2019-04-10T13:53:34.245Z,19.00
2019-04-10T13:56:04.872Z,18.77
2019-04-10T13:58:35.147Z,21.67
2019-04-10T14:01:07.103Z,20.20
2019-04-10T14:03:36.938Z,20.43
2019-04-10T14:06:07.501Z,21.27
2019-04-10T14:08:58.732Z,24.67
2019-04-10T14:11:09.396Z,23.40
2019-04-10T14:13:40.013Z,18.90
2019-04-10T14:16:10.678Z,18.97
2019-04-10T14:18:41.086Z,17.60
2019-04-10T14:21:15.318Z,18.87
2019-04-10T14:23:43.414Z,18.23
2019-04-10T14:26:46.014Z,15.63
2019-04-10T14:29:19.072Z,19.80
2019-04-10T14:31:54.868Z,17.80
2019-04-10T14:34:24.466Z,20.00
2019-04-10T14:36:54.791Z,19.53
2019-04-10T14:39:24.517Z,19.03
2019-04-10T14:41:54.405Z,20.47
2019-04-10T14:44:24.364Z,20.03
2019-04-10T14:46:54.258Z,19.23
2019-04-10T14:49:24.900Z,21.57
2019-04-10T14:51:54.819Z,21.10
2019-04-10T14:54:26.005Z,21.27
2019-04-10T14:56:56.838Z,19.60
2019-04-10T14:59:28.148Z,20.50
2019-04-10T15:01:58.089Z,19.77
2019-04-10T15:04:27.626Z,19.90
2019-04-10T15:06:57.582Z,21.63
2019-04-10T15:09:27.730Z,22.17
2019-04-10T15:11:57.450Z,21.00
2019-04-10T15:14:27.857Z,21.20
2019-04-10T15:17:01.756Z,21.80
2019-04-10T15:19:30.809Z,20.97
2019-04-10T15:22:01.179Z,20.83
2019-04-10T15:24:31.449Z,21.67
2019-04-10T15:27:01.303Z,19.97
2019-04-10T15:29:32.375Z,20.97
2019-04-10T15:32:02.181Z,20.93
2019-04-10T15:34:32.136Z,22.00
2019-04-10T15:37:01.933Z,24.50
2019-04-10T15:39:35.763Z,23.57
2019-04-10T15:42:28.016Z,21.33
2019-04-10T15:44:58.700Z,21.70
2019-04-10T15:47:29.077Z,21.17
2019-04-10T15:49:59.869Z,20.60
2019-04-10T15:52:29.569Z,20.83
2019-04-10T15:54:59.944Z,22.30
2019-04-10T15:57:29.599Z,19.30
2019-04-10T15:59:59.290Z,21.63
2019-04-10T16:02:29.882Z,22.07
2019-04-10T16:05:01.643Z,21.07
2019-04-10T16:07:32.356Z,20.30
2019-04-10T16:10:21.604Z,21.73
2019-04-10T16:12:52.369Z,21.20
2019-04-10T16:15:23.671Z,21.30
2019-04-10T16:18:05.535Z,23.40
2019-04-10T16:20:36.872Z,21.13
2019-04-10T16:23:12.141Z,20.90
2019-04-10T16:25:46.770Z,21.23
2019-04-10T16:28:17.955Z,22.10
2019-04-10T16:30:55.123Z,19.53
2019-04-10T16:33:25.520Z,21.53
2019-04-10T16:35:56.969Z,20.47
2019-04-10T16:38:30.990Z,20.93
2019-04-10T16:41:02.541Z,21.00
2019-04-10T16:43:33.156Z,19.43
2019-04-10T16:46:04.823Z,19.17
2019-04-10T16:48:35.852Z,21.43
2019-04-10T16:51:07.938Z,18.47
2019-04-10T16:53:41.269Z,19.10
2019-04-10T16:56:11.515Z,18.33
2019-04-10T16:58:42.824Z,18.77
2019-04-10T17:01:14.425Z,18.70
2019-04-10T17:03:44.960Z,16.17
2019-04-10T17:09:50.440Z,15.23
2019-04-10T17:12:21.956Z,17.63
2019-04-10T17:14:53.318Z,14.20
2019-04-10T17:17:24.835Z,16.87
2019-04-10T17:19:57.327Z,16.03
2019-04-10T17:22:34.322Z,17.00
2019-04-10T17:25:00.117Z,14.97
2019-04-10T17:27:40.610Z,15.60
2019-04-10T17:30:11.695Z,14.87
2019-04-10T17:32:42.647Z,14.63
2019-04-10T17:35:13.974Z,14.97
2019-04-10T17:37:45.685Z,13.17
2019-04-10T17:40:28.454Z,14.43
2019-04-10T17:42:48.910Z,14.93
2019-04-10T17:45:20.494Z,14.20
2019-04-10T17:47:51.464Z,14.90
2019-04-10T17:50:22.505Z,13.20
2019-04-10T17:52:53.402Z,15.80
2019-04-10T17:55:25.310Z,12.40
2019-04-10T17:57:57.827Z,12.43
2019-04-10T18:00:35.530Z,12.40
2019-04-10T18:03:07.480Z,13.20
2019-04-10T18:05:39.135Z,12.33
2019-04-10T18:08:10.623Z,12.07
2019-04-10T18:10:47.113Z,12.17
2019-04-10T18:13:13.401Z,13.00
2019-04-10T18:15:50.625Z,12.00
2019-04-10T18:18:21.960Z,13.47
2019-04-10T18:20:52.616Z,12.67
2019-04-10T18:23:23.048Z,11.50
2019-04-10T18:25:54.056Z,12.00
2019-04-10T18:28:23.976Z,13.77
2019-04-10T18:30:54.442Z,13.67
2019-04-10T18:33:24.546Z,28.80
2019-04-10T18:35:55.255Z,13.20
2019-04-10T18:38:25.805Z,13.00
2019-04-10T18:41:02.004Z,14.20
2019-04-10T18:43:29.938Z,16.27
2019-04-10T18:46:08.732Z,14.43
2019-04-10T18:48:30.954Z,13.47
2019-04-10T18:51:02.099Z,13.13
2019-04-10T18:53:33.079Z,12.03
2019-04-10T18:56:03.025Z,10.93
2019-04-10T18:58:40.182Z,18.63
2019-04-10T19:01:28.783Z,12.17
2019-04-10T19:04:16.322Z,11.80
2019-04-10T19:06:58.612Z,9.77
2019-04-10T19:09:33.928Z,10.67
2019-04-10T19:12:04.400Z,10.27
2019-04-10T19:14:36.658Z,11.60
2019-04-10T19:17:06.793Z,11.80
2019-04-10T19:19:40.320Z,11.43
2019-04-10T19:22:08.083Z,11.70
2019-04-10T19:24:39.385Z,10.90
2019-04-10T19:27:09.635Z,10.87
2019-04-10T19:29:40.365Z,11.67
2019-04-10T19:32:14.143Z,13.87
2019-04-10T19:34:43.726Z,11.27
2019-04-10T19:37:14.440Z,12.10
2019-04-10T19:39:44.627Z,10.10
2019-04-10T19:42:15.344Z,11.93
2019-04-10T19:44:45.600Z,9.57
2019-04-10T19:47:15.852Z,10.03
2019-04-10T19:49:46.384Z,10.27
2019-04-10T19:52:16.639Z,10.73
2019-04-10T19:54:47.246Z,9.23
2019-04-10T19:57:17.261Z,11.83
2019-04-10T19:59:46.831Z,10.07
2019-04-10T20:02:17.644Z,10.37
2019-04-10T20:04:48.433Z,10.90
2019-04-10T20:07:18.585Z,9.57
2019-04-10T20:09:48.626Z,9.67
2019-04-10T20:12:18.245Z,9.33
2019-04-10T20:14:48.532Z,10.33
2019-04-10T20:17:19.818Z,9.73
2019-04-10T20:19:49.340Z,10.00
2019-04-10T20:22:18.914Z,8.67
2019-04-10T20:24:50.154Z,8.43
2019-04-10T20:27:20.282Z,9.00
2019-04-10T20:29:51.039Z,8.97
2019-04-10T20:32:21.778Z,10.07
2019-04-10T20:34:51.788Z,11.27
2019-04-10T20:37:21.337Z,9.30
2019-04-10T20:39:51.733Z,8.57
2019-04-10T20:42:22.326Z,9.90
2019-04-10T20:44:53.328Z,35.20
2019-04-10T20:47:23.224Z,9.97
2019-04-10T20:49:55.253Z,9.90
2019-04-10T20:52:26.236Z,10.10
2019-04-10T20:54:57.188Z,9.57
2019-04-10T20:57:27.695Z,9.10
2019-04-10T20:59:58.033Z,8.70
2019-04-10T21:02:28.514Z,9.53
2019-04-10T21:05:03.114Z,9.30
2019-04-10T21:07:30.575Z,10.40
2019-04-10T21:10:00.827Z,9.40
2019-04-10T21:12:36.560Z,9.43
2019-04-10T21:15:06.156Z,9.80
2019-04-10T21:17:35.785Z,9.83
2019-04-10T21:20:07.899Z,10.63
2019-04-10T21:22:38.349Z,9.40
2019-04-10T21:25:08.215Z,10.30
2019-04-10T21:27:37.989Z,10.20
2019-04-10T21:30:22.394Z,9.37
2019-04-10T21:32:58.698Z,9.13
2019-04-10T21:35:33.283Z,10.07
2019-04-10T21:38:02.869Z,9.97
2019-04-10T21:40:32.793Z,9.93
2019-04-10T21:43:03.646Z,10.30
2019-04-10T21:45:35.036Z,10.23
2019-04-10T21:48:04.708Z,9.90
2019-04-10T21:50:35.520Z,9.70
2019-04-10T21:53:06.113Z,10.77
2019-04-10T21:55:35.803Z,9.23
2019-04-10T21:58:06.082Z,9.97
2019-04-10T22:01:05.248Z,10.70
2019-04-10T22:03:35.856Z,11.57
2019-04-10T22:06:24.177Z,10.90
2019-04-10T22:09:01.832Z,9.67
2019-04-10T22:11:33.467Z,8.43
2019-04-10T22:14:03.029Z,9.97
2019-04-10T22:16:33.674Z,9.13
2019-04-10T22:19:03.826Z,10.33
2019-04-10T22:21:53.713Z,10.77
2019-04-10T22:24:23.546Z,11.57
2019-04-10T22:26:54.282Z,9.40
2019-04-10T22:29:23.912Z,10.87
2019-04-10T22:31:53.502Z,10.97
2019-04-10T22:34:23.148Z,11.00
2019-04-10T22:36:53.520Z,10.87
2019-04-10T22:39:23.194Z,10.30
2019-04-10T22:41:52.713Z,10.30
2019-04-10T22:44:33.700Z,9.63
2019-04-10T22:46:54.428Z,10.83
2019-04-10T22:49:24.086Z,10.57
2019-04-10T22:51:54.603Z,11.23
2019-04-10T22:54:44.359Z,8.37
2019-04-10T22:57:14.541Z,10.40
2019-04-10T22:59:44.319Z,11.30
2019-04-10T23:02:15.865Z,10.23
2019-04-10T23:04:45.249Z,11.20
2019-04-10T23:07:14.821Z,10.30
2019-04-10T23:09:44.471Z,10.10
2019-04-10T23:12:16.198Z,10.00
2019-04-10T23:14:46.950Z,11.27
2019-04-10T23:17:16.849Z,10.30
2019-04-10T23:19:46.750Z,10.27
2019-04-10T23:22:17.390Z,11.33
2019-04-10T23:24:47.666Z,11.43
2019-04-10T23:27:17.700Z,11.13
2019-04-10T23:29:48.502Z,8.90
2019-04-10T23:32:18.067Z,11.17
2019-04-10T23:34:47.579Z,10.27
2019-04-10T23:37:18.736Z,10.60
2019-04-10T23:39:48.538Z,11.87
2019-04-10T23:42:19.326Z,11.77
2019-04-10T23:44:49.176Z,11.50
2019-04-10T23:47:18.739Z,11.63
2019-04-10T23:49:48.255Z,11.50
2019-04-10T23:52:17.954Z,11.87
2019-04-10T23:54:47.587Z,11.03
2019-04-10T23:57:17.382Z,12.20
2019-04-10T23:59:46.997Z,12.60
